Главная страница
METAR-TAF:

METAR-TAF

Аэропорты :

Волгоград, Россия

Гумрак

широта: 48-47N, долгота: 044-22E, высота над уровнем моря: 145 м

Текущие метеонаблюдения

Эта сводка был подготовлена 24 минут назад, в 07:00 UTC
Ветер 16 Узел от юго-восточный
Температура 17°C
Влажность 45%
Давление 1022 hPa
Видимость 10 км и более
Нет облачности ниже 1500 м, и нет кучево-дождевой облачности

METAR: URWW 290700Z 13008MPS CAVOK 17/05 Q1022 R06/010070 NOSIG

Время: 10:24 (07:24 UTC)

Прогноз

Эта сводка был подготовлена 2 часа и 26 минут назад, в 04:58 UTC
Прогноз действительный с 29-го 06 UTC до 29-го 15 UTC
Ветер 17 Узел от юго-восточный с порывами до 27 Узел
Видимость 10 км и более
Нет облачности ниже 1500 м, и нет кучево-дождевой облачности
временами
С 29-го 06 UTC до 29-го 15 UTC
Ветер 25 Узел от юго-юго-восточный с порывами до 35 Узел

TAF: URWW 290458Z 2906/2915 14009G14MPS CAVOK TEMPO 2906/2915 16013G18MPS

Метеонаблюдения и прогнозы для более 4000 аэропортов (сводки METAR и TAF).

Имеющиеся станции представлены на карте желтыми и красными точками.

Чтобы увидеть название станции, наведите на нее мышь.

Затем щелкните, чтобы увидеть метеонаблюдения и метеопрогнозы.

Управление картой: чтобы увеличить масштаб, щелкните зеленые кнопки с черным крестиком; чтобы уменьшить масштаб, щелкните зеленую кнопку с тире; для просмотра соседних карт щелкайте зеленые стрелки.


METAR-TAF: